WetterOnline ( https://www.wetteronline.de )

Wetter aktuell Pfälzer Wald

Aktuelles Wetter: Weinbiet/Pfalz (557m)

6-stündlich | Neueste Meldungen
Ortszeit Temperatur Wetter
So, 05.02. 1:00 1.8° C fast wolkenlos
Sa, 04.02. 19:00 3.4° C wolkenlos
Sa, 04.02. 13:00 3.9° C bedeckt
Sa, 04.02. 7:00 3.0° C bedeckt
Sa, 04.02. 1:00 5.3° C leichter Regen
Fr, 03.02. 19:00 4.8° C leichter Regen
Fr, 03.02. 13:00 4.6° C bedeckt
Fr, 03.02. 7:00 3.8° C Sprühregen
Ortszeit Temperatur Wetter
So, 05.02. 6:00 2.3° C bedeckt
So, 05.02. 5:50 2.3° C bedeckt
So, 05.02. 5:40 2.5° C bedeckt
So, 05.02. 5:30 2.5° C bedeckt
So, 05.02. 5:20 2.5° C bedeckt
So, 05.02. 5:10 2.5° C bedeckt
So, 05.02. 5:00 2.5° C bedeckt
So, 05.02. 4:30 2.4° C bedeckt
So, 05.02. 4:00 2.5° C bedeckt
So, 05.02. 3:30 2.3° C bedeckt
So, 05.02. 3:00 2.2° C Sprühregen
Ortszeit Relative Feuchte Sichtweite
So, 05.02. 1:00 79% 45 km
Sa, 04.02. 19:00 81% 27 km
Sa, 04.02. 13:00 83% 30 km
Sa, 04.02. 7:00 99% 7 km
Sa, 04.02. 1:00 100% 100 m
Fr, 03.02. 19:00 100% 0.2 km
Fr, 03.02. 13:00 95% 65 km
Fr, 03.02. 7:00 97% 16 km
Ortszeit Relative Feuchte Sichtweite
So, 05.02. 6:00 87% 28 km
So, 05.02. 5:50 87% -
So, 05.02. 5:40 85% -
So, 05.02. 5:30 87% 28 km
So, 05.02. 5:20 87% -
So, 05.02. 5:10 88% -
So, 05.02. 5:00 87% 29 km
So, 05.02. 4:30 87% 26 km
So, 05.02. 4:00 87% 28 km
So, 05.02. 3:30 88% 28 km
So, 05.02. 3:00 88% 28 km
Ortszeit Niederschlagsmenge Niederschlagsart
So, 05.02. 1:00 0.0 l/m2 in 6 Std. -
Sa, 04.02. 19:00 0.1 l/m2 in 12 Std. -
Sa, 04.02. 13:00 0.1 l/m2 in 6 Std. Regen
Sa, 04.02. 7:00 4 l/m2 in 12 Std. Regen
Sa, 04.02. 1:00 0.6 l/m2 in 6 Std. Regen
Fr, 03.02. 19:00 0.6 l/m2 in 12 Std. Regen
Fr, 03.02. 13:00 0.1 l/m2 in 6 Std. Regen
Fr, 03.02. 7:00 0.1 l/m2 in 12 Std. Regen
Ortszeit Niederschlagsmenge Niederschlagsart
So, 05.02. 6:00 0.0 l/m2 in 1 Std. -
So, 05.02. 5:50 keine Meldung -
So, 05.02. 5:40 keine Meldung -
So, 05.02. 5:30 0.0 l/m2 in 30 Min -
So, 05.02. 5:20 keine Meldung -
So, 05.02. 5:10 keine Meldung -
So, 05.02. 5:00 <0.05 l/m2 in 1 Std. Regen
So, 05.02. 4:30 <0.05 l/m2 in 30 Min Schneeregen
So, 05.02. 4:00 <0.05 l/m2 in 1 Std. Regen
So, 05.02. 3:30 <0.05 l/m2 in 30 Min Schnee
So, 05.02. 3:00 <0.05 l/m2 in 1 Std. Regen
Ortszeit Stärke Spitze Richtung
km/h Bft. km/h Grad Sektor
So, 05.02. 1:00 9 2 22 190° S
Sa, 04.02. 19:00 7 2 15 70° O
Sa, 04.02. 13:00 9 2 28 20° N
Sa, 04.02. 7:00 20 4 52 310° NW
Sa, 04.02. 1:00 31 5 70 280° W
Fr, 03.02. 19:00 43 6 86 270° W
Fr, 03.02. 13:00 54 7 86 260° W
Fr, 03.02. 7:00 37 5 70 250° W
Ortszeit Stärke Spitze Richtung
km/h Bft. km/h Grad Sektor
So, 05.02. 6:00 20 4 26 260° W
So, 05.02. 5:50 20 4 - 260° W
So, 05.02. 5:40 18 3 - 260° W
So, 05.02. 5:30 18 3 22 250° W
So, 05.02. 5:20 18 3 - 250° W
So, 05.02. 5:10 17 3 - 240° SW
So, 05.02. 5:00 15 3 17 240° SW
So, 05.02. 4:30 14 3 18 230° SW
So, 05.02. 4:00 15 3 19 240° SW
So, 05.02. 3:30 13 3 15 260° W
So, 05.02. 3:00 13 3 15 240° SW
Ortszeit Untergrenze Bedeckung Gattung
total tief tief mittel hoch
So, 05.02. 1:00 930 m 1/8 1/8 - - -
Sa, 04.02. 19:00 - 0/8 0/8 - - -
Sa, 04.02. 13:00 210 m 8/8 8/8 - - -
Sa, 04.02. 7:00 150 m 8/8 8/8 - - -
Sa, 04.02. 1:00 30 m 7/8 7/8 - - -
Fr, 03.02. 19:00 <30 m 7/8 0/8 - - -
Fr, 03.02. 13:00 150 m 8/8 8/8 - - -
Fr, 03.02. 7:00 90 m 7/8 7/8 - - -
Ortszeit Bedeckungsgrad in Achtel und Wolkenuntergrenze
So, 05.02. 6:00 8(630m) 8(870m) 8(1500m)
So, 05.02. 5:50 8(630m) 8(870m) 8(1500m)
So, 05.02. 5:40 8
So, 05.02. 5:30 8(630m) 8(1350m)
So, 05.02. 5:20 8(630m) 8(1350m)
So, 05.02. 5:10 8
So, 05.02. 5:00 7(660m) 8(900m) 8(1350m)
So, 05.02. 4:30 7(660m) 8(1350m)
So, 05.02. 4:00 8(690m)
So, 05.02. 3:30 8(660m)
So, 05.02. 3:00 6(720m) 8(1020m)
Ortszeit Luftdruck NN (hPa) Tendenz (hPa in 3 Std.)
So, 05.02. 1:00 1039 0,0
Sa, 04.02. 19:00 1038 + 0,7
Sa, 04.02. 13:00 1037 + 0,8
Sa, 04.02. 7:00 1034 + 1,1
Sa, 04.02. 1:00 1031 + 1,5
Fr, 03.02. 19:00 1029 + 1,0
Fr, 03.02. 13:00 1028 - 1,2
Fr, 03.02. 7:00 1029 + 0,7
Ortszeit Luftdruck NN (hPa) Tendenz (hPa in 3 Std.)
So, 05.02. 6:00 1037 - 0,7
So, 05.02. 5:50 1037 keine Meldung
So, 05.02. 5:40 1037 keine Meldung
So, 05.02. 5:30 1037 - 1,1
So, 05.02. 5:20 1037 keine Meldung
So, 05.02. 5:10 1037 keine Meldung
So, 05.02. 5:00 1037 - 1,4
So, 05.02. 4:30 1037 - 1,5
So, 05.02. 4:00 1037 - 1,3
So, 05.02. 3:30 1038 - 1,0
So, 05.02. 3:00 1038 - 0,7
Ortszeit Schneehöhe (cm)
So, 05.02. 1:00 0
Sa, 04.02. 19:00 0
Sa, 04.02. 13:00 0
Sa, 04.02. 7:00 0
Sa, 04.02. 1:00 0
Fr, 03.02. 19:00 0
Fr, 03.02. 13:00 0
Fr, 03.02. 7:00 0
Ortszeit Schneehöhe (cm)
So, 05.02. 6:00 0
So, 05.02. 5:50 0
So, 05.02. 5:40 0
So, 05.02. 5:30 0
So, 05.02. 5:20 0
So, 05.02. 5:10 0
So, 05.02. 5:00 0
So, 05.02. 4:30 0
So, 05.02. 4:00 0
So, 05.02. 3:30 0
So, 05.02. 3:00 0
Link zu dieser Seite / Seite empfehlen

Das Wetter in ...